createdAt,value
2022-11-04T00:01:47.150Z,9.79
2022-11-04T00:04:17.490Z,9.78
2022-11-04T00:06:45.650Z,9.79
2022-11-04T00:09:17.121Z,9.83
2022-11-04T00:12:03.677Z,9.89
2022-11-04T00:14:32.929Z,9.93
2022-11-04T00:17:19.728Z,9.94
2022-11-04T00:20:11.560Z,9.93
2022-11-04T00:23:00.098Z,9.93
2022-11-04T00:25:46.764Z,9.98
2022-11-04T00:28:35.718Z,10.02
2022-11-04T00:31:25.578Z,10.06
2022-11-04T00:33:55.761Z,10.11
2022-11-04T00:36:24.625Z,10.17
2022-11-04T00:38:53.432Z,10.24
2022-11-04T00:41:28.199Z,10.30
2022-11-04T00:43:58.659Z,10.35
2022-11-04T00:46:27.866Z,10.42
2022-11-04T00:48:55.972Z,10.52
2022-11-04T00:51:24.236Z,10.65
2022-11-04T00:53:52.021Z,10.77
2022-11-04T00:56:19.924Z,10.85
2022-11-04T00:58:47.711Z,10.92
2022-11-04T01:01:19.243Z,10.97
2022-11-04T01:03:49.899Z,11.01
2022-11-04T01:06:19.339Z,11.05
2022-11-04T01:08:47.811Z,11.07
2022-11-04T01:11:16.560Z,11.09
2022-11-04T01:13:44.341Z,11.11
2022-11-04T01:16:13.278Z,11.12
2022-11-04T01:18:41.544Z,11.11
2022-11-04T01:21:13.015Z,11.11
2022-11-04T01:23:42.460Z,11.10
2022-11-04T01:26:19.089Z,11.09
2022-11-04T01:28:46.959Z,11.07
2022-11-04T01:31:17.577Z,11.06
2022-11-04T01:33:45.388Z,11.06
2022-11-04T01:36:14.432Z,11.08
2022-11-04T01:38:42.730Z,11.09
2022-11-04T01:41:19.065Z,11.08
2022-11-04T01:43:52.965Z,11.09
2022-11-04T01:46:29.955Z,11.08
2022-11-04T01:49:07.265Z,11.07
2022-11-04T01:51:38.105Z,11.11
2022-11-04T01:54:08.633Z,11.16
2022-11-04T01:56:38.489Z,11.24
2022-11-04T01:59:11.637Z,11.33
2022-11-04T02:01:39.623Z,11.39
2022-11-04T02:04:27.266Z,11.44
2022-11-04T02:06:58.214Z,11.47
2022-11-04T02:09:29.005Z,11.50
2022-11-04T02:12:16.291Z,11.56
2022-11-04T02:14:46.089Z,11.59
2022-11-04T02:17:19.991Z,11.60
2022-11-04T02:20:04.133Z,11.60
2022-11-04T02:22:47.679Z,11.56
2022-11-04T02:25:18.270Z,11.51
2022-11-04T02:28:17.049Z,11.45
2022-11-04T02:31:01.882Z,11.39
2022-11-04T02:33:56.982Z,11.33
2022-11-04T02:36:44.247Z,11.29
2022-11-04T02:39:56.891Z,11.27
2022-11-04T02:42:45.482Z,11.22
2022-11-04T02:45:17.846Z,11.17
2022-11-04T02:48:03.410Z,11.09
2022-11-04T02:50:49.916Z,11.03
2022-11-04T02:53:27.719Z,10.99
2022-11-04T02:55:58.249Z,10.95
2022-11-04T02:58:32.988Z,10.91
2022-11-04T03:01:02.581Z,10.86
2022-11-04T03:03:44.291Z,10.79
2022-11-04T03:06:14.278Z,10.71
2022-11-04T03:08:48.172Z,10.64
2022-11-04T03:11:22.229Z,10.58
2022-11-04T03:13:59.214Z,10.54
2022-11-04T03:16:40.900Z,10.52
2022-11-04T03:19:47.390Z,10.49
2022-11-04T03:22:19.191Z,10.47
2022-11-04T03:24:48.757Z,10.41
2022-11-04T03:27:16.423Z,10.35
2022-11-04T03:30:02.636Z,10.27
2022-11-04T03:32:33.521Z,10.17
2022-11-04T03:35:01.289Z,10.10
2022-11-04T03:37:29.978Z,10.03
2022-11-04T03:39:57.856Z,9.96
2022-11-04T03:42:27.263Z,9.90
2022-11-04T03:44:59.742Z,9.84
2022-11-04T03:47:30.657Z,9.77
2022-11-04T03:50:09.617Z,9.72
2022-11-04T03:52:37.480Z,9.66
2022-11-04T03:55:08.250Z,9.61
2022-11-04T03:58:15.962Z,9.57
2022-11-04T04:01:08.207Z,9.54
2022-11-04T04:03:47.759Z,9.50
2022-11-04T04:06:20.851Z,9.47
2022-11-04T04:09:02.981Z,9.42
2022-11-04T04:11:57.188Z,9.68
2022-11-04T04:14:39.409Z,11.85
2022-11-04T04:17:13.168Z,13.65
2022-11-04T04:19:45.357Z,14.28
2022-11-04T04:22:19.247Z,13.42
2022-11-04T04:25:08.739Z,12.54
2022-11-04T04:27:39.366Z,11.85
2022-11-04T04:30:13.835Z,11.42
2022-11-04T04:32:45.485Z,11.08
2022-11-04T04:35:32.957Z,10.79
2022-11-04T04:38:25.198Z,10.52
2022-11-04T04:41:32.833Z,10.28
2022-11-04T04:44:19.366Z,10.07
2022-11-04T04:46:50.047Z,9.93
2022-11-04T04:49:17.782Z,9.83
2022-11-04T04:51:47.646Z,9.74
2022-11-04T04:54:15.719Z,9.67
2022-11-04T04:56:43.450Z,9.63
2022-11-04T04:59:11.223Z,9.61
2022-11-04T05:01:39.310Z,9.58
2022-11-04T05:04:07.236Z,9.53
2022-11-04T05:06:34.951Z,9.92
2022-11-04T05:09:02.886Z,11.90
2022-11-04T05:11:30.671Z,13.35
2022-11-04T05:13:58.480Z,13.01
2022-11-04T05:16:26.204Z,12.30
2022-11-04T05:18:53.989Z,11.81
2022-11-04T05:21:21.735Z,11.51
2022-11-04T05:23:49.494Z,11.31
2022-11-04T05:26:17.724Z,11.16
2022-11-04T05:28:45.501Z,11.02
2022-11-04T05:31:13.370Z,10.91
2022-11-04T05:33:41.254Z,10.81
2022-11-04T05:36:11.095Z,10.73
2022-11-04T05:38:39.314Z,10.65
2022-11-04T05:41:08.686Z,10.59
2022-11-04T05:43:36.864Z,10.55
2022-11-04T05:46:04.880Z,10.53
2022-11-04T05:48:37.756Z,10.50
2022-11-04T05:51:07.987Z,10.52
2022-11-04T05:53:35.760Z,11.68
2022-11-04T05:56:03.613Z,13.87
2022-11-04T05:58:31.321Z,15.11
2022-11-04T06:01:32.387Z,14.53
2022-11-04T06:04:01.551Z,13.55
2022-11-04T06:06:34.953Z,13.04
2022-11-04T06:09:03.862Z,12.71
2022-11-04T06:11:33.217Z,12.50
2022-11-04T06:14:01.382Z,12.36
2022-11-04T06:16:29.134Z,12.27
2022-11-04T06:19:01.533Z,12.22
2022-11-04T06:21:34.081Z,12.20
2022-11-04T06:24:02.373Z,12.23
2022-11-04T06:26:31.379Z,12.28
2022-11-04T06:28:59.140Z,12.35
2022-11-04T06:31:27.118Z,12.38
2022-11-04T06:33:54.924Z,12.40
2022-11-04T06:36:22.688Z,12.40
2022-11-04T06:38:50.465Z,12.39
2022-11-04T06:41:18.390Z,12.40
2022-11-04T06:43:46.237Z,12.43
2022-11-04T06:46:52.890Z,12.48
2022-11-04T06:49:23.194Z,12.56
2022-11-04T06:51:52.156Z,12.67
2022-11-04T06:54:20.819Z,12.72
2022-11-04T06:56:49.053Z,12.75
2022-11-04T06:59:20.144Z,12.75
2022-11-04T07:01:50.653Z,12.73
2022-11-04T07:04:18.672Z,12.73
2022-11-04T07:06:46.468Z,12.73
2022-11-04T07:09:15.553Z,12.76
2022-11-04T07:11:45.218Z,12.82
2022-11-04T07:14:13.406Z,12.88
2022-11-04T07:16:41.305Z,13.02
2022-11-04T07:19:09.073Z,13.21
2022-11-04T07:21:36.830Z,14.21
2022-11-04T07:24:04.879Z,15.96
2022-11-04T07:26:32.583Z,16.07
2022-11-04T07:29:01.171Z,15.61
2022-11-04T07:31:28.939Z,15.25
2022-11-04T07:33:56.736Z,15.03
2022-11-04T07:36:24.528Z,14.87
2022-11-04T07:38:52.314Z,14.77
2022-11-04T07:41:20.140Z,14.72
2022-11-04T07:43:49.996Z,14.68
2022-11-04T07:46:19.243Z,14.64
2022-11-04T07:48:47.616Z,14.61
2022-11-04T07:51:18.761Z,14.59
2022-11-04T07:53:46.987Z,14.60
2022-11-04T07:56:14.877Z,14.59
2022-11-04T07:58:43.237Z,14.58
2022-11-04T08:01:17.655Z,14.57
2022-11-04T08:03:46.161Z,14.58
2022-11-04T08:06:14.985Z,14.60
2022-11-04T08:08:43.829Z,14.62
2022-11-04T08:11:18.133Z,14.66
2022-11-04T08:13:47.249Z,14.71
2022-11-04T08:16:17.867Z,14.78
2022-11-04T08:18:46.446Z,14.82
2022-11-04T08:21:15.442Z,14.89
2022-11-04T08:23:43.927Z,14.95
2022-11-04T08:26:17.048Z,14.96
2022-11-04T08:28:45.056Z,14.94
2022-11-04T08:31:23.903Z,14.94
2022-11-04T08:33:52.925Z,14.97
2022-11-04T08:36:24.027Z,15.02
2022-11-04T08:38:52.245Z,15.05
2022-11-04T08:41:26.015Z,15.06
2022-11-04T08:43:53.745Z,15.11
2022-11-04T08:46:21.483Z,15.17
2022-11-04T08:48:49.630Z,15.22
2022-11-04T08:51:21.226Z,15.27
2022-11-04T08:53:49.240Z,15.33
2022-11-04T08:56:20.421Z,15.40
2022-11-04T08:58:49.520Z,15.47
2022-11-04T09:01:19.064Z,15.52
2022-11-04T09:03:48.260Z,15.60
2022-11-04T09:06:22.784Z,15.68
2022-11-04T09:08:50.852Z,15.79
2022-11-04T09:11:18.955Z,15.89
2022-11-04T09:13:46.918Z,15.95
2022-11-04T09:16:15.545Z,16.02
2022-11-04T09:18:43.328Z,16.02
2022-11-04T09:21:11.588Z,16.02
2022-11-04T09:23:39.444Z,16.00
2022-11-04T09:26:13.882Z,15.95
2022-11-04T09:28:42.522Z,15.92
2022-11-04T09:31:16.618Z,15.88
2022-11-04T09:33:45.060Z,15.85
2022-11-04T09:36:13.664Z,15.86
2022-11-04T09:38:42.532Z,15.86
2022-11-04T09:41:38.117Z,15.90
2022-11-04T09:44:39.820Z,15.92
2022-11-04T09:47:21.677Z,15.96
2022-11-04T09:49:53.797Z,15.97
2022-11-04T09:52:31.461Z,15.99
2022-11-04T09:55:12.804Z,16.08
2022-11-04T09:58:00.663Z,16.20
2022-11-04T10:00:32.734Z,16.27
2022-11-04T10:03:23.925Z,16.32
2022-11-04T10:05:58.649Z,16.36
2022-11-04T10:08:33.803Z,16.45
2022-11-04T10:11:12.910Z,16.51
2022-11-04T10:13:47.571Z,16.53
2022-11-04T10:16:30.485Z,16.53
2022-11-04T10:19:17.095Z,16.54
2022-11-04T10:22:10.635Z,16.51
2022-11-04T10:24:43.495Z,16.48
2022-11-04T10:27:17.682Z,16.46
2022-11-04T10:29:47.320Z,16.47
2022-11-04T10:32:22.627Z,16.48
2022-11-04T10:34:59.442Z,16.49
2022-11-04T10:37:27.247Z,16.54
2022-11-04T10:40:20.656Z,16.56
2022-11-04T10:42:48.748Z,16.56
2022-11-04T10:45:16.562Z,16.59
2022-11-04T10:47:51.950Z,16.59
2022-11-04T10:50:38.053Z,16.56
2022-11-04T10:53:26.253Z,16.58
2022-11-04T10:56:15.745Z,16.57
2022-11-04T10:58:47.413Z,16.57
2022-11-04T11:01:33.984Z,16.55
2022-11-04T11:04:07.278Z,16.52
2022-11-04T11:06:36.933Z,16.51
2022-11-04T11:09:21.417Z,16.57
2022-11-04T11:11:51.590Z,16.63
2022-11-04T11:14:32.413Z,16.69
2022-11-04T11:17:21.585Z,16.77
2022-11-04T11:20:15.096Z,16.87
2022-11-04T11:22:47.762Z,16.99
2022-11-04T11:25:27.744Z,17.06
2022-11-04T11:27:58.343Z,17.09
2022-11-04T11:30:42.122Z,17.01
2022-11-04T11:33:23.320Z,16.94
2022-11-04T11:36:14.788Z,16.84
2022-11-04T11:39:12.335Z,16.74
2022-11-04T11:41:53.702Z,16.62
2022-11-04T11:44:38.991Z,16.51
2022-11-04T11:47:18.988Z,16.44
2022-11-04T11:49:46.760Z,16.34
2022-11-04T11:52:32.783Z,16.28
2022-11-04T11:55:07.585Z,16.20
2022-11-04T12:01:03.498Z,15.97
2022-11-04T12:10:07.040Z,15.83
2022-11-04T12:12:56.240Z,15.84
2022-11-04T12:15:45.115Z,15.84
2022-11-04T12:18:35.037Z,15.80
2022-11-04T12:21:19.217Z,15.72
2022-11-04T12:23:53.729Z,15.66
2022-11-04T12:26:31.233Z,15.60
2022-11-04T12:29:01.688Z,15.54
2022-11-04T12:31:38.138Z,15.49
2022-11-04T12:34:28.924Z,15.42
2022-11-04T12:36:59.489Z,15.33
2022-11-04T12:39:48.893Z,15.23
2022-11-04T12:42:41.712Z,15.13
2022-11-04T12:45:34.053Z,15.03
2022-11-04T12:48:09.978Z,14.94
2022-11-04T12:51:05.329Z,14.84
2022-11-04T12:54:06.793Z,14.73
2022-11-04T12:56:39.520Z,14.63
2022-11-04T12:59:16.450Z,14.57
2022-11-04T13:02:19.588Z,14.56
2022-11-04T13:04:55.963Z,14.55
2022-11-04T13:07:28.481Z,14.51
2022-11-04T13:09:59.840Z,14.48
2022-11-04T13:12:36.047Z,14.43
2022-11-04T13:15:16.936Z,14.38
2022-11-04T13:17:47.357Z,14.32
2022-11-04T13:20:26.749Z,14.28
2022-11-04T13:23:07.692Z,14.63
2022-11-04T13:25:42.324Z,16.60
2022-11-04T13:28:16.444Z,17.58
2022-11-04T13:30:53.293Z,16.98
2022-11-04T13:33:33.907Z,16.25
2022-11-04T13:36:16.283Z,15.73
2022-11-04T13:38:50.437Z,15.34
2022-11-04T13:41:38.770Z,15.05
2022-11-04T13:44:17.586Z,14.77
2022-11-04T13:46:52.775Z,14.57
2022-11-04T13:49:32.689Z,14.38
2022-11-04T13:52:12.672Z,14.24
2022-11-04T13:54:55.473Z,14.13
2022-11-04T13:57:32.810Z,14.53
2022-11-04T14:00:08.959Z,16.30
2022-11-04T14:02:43.865Z,17.48
2022-11-04T14:05:31.107Z,17.84
2022-11-04T14:07:59.370Z,17.23
2022-11-04T14:10:37.270Z,16.54
2022-11-04T14:13:42.548Z,15.99
2022-11-04T14:16:25.560Z,15.55
2022-11-04T14:18:54.248Z,15.27
2022-11-04T14:21:27.530Z,15.04
2022-11-04T14:23:58.968Z,14.85
2022-11-04T14:26:43.312Z,14.67
2022-11-04T14:29:24.600Z,14.50
2022-11-04T14:31:55.314Z,14.33
2022-11-04T14:34:28.899Z,14.19
2022-11-04T14:36:58.863Z,14.06
2022-11-04T14:39:34.648Z,14.31
2022-11-04T14:42:06.649Z,16.07
2022-11-04T14:44:37.927Z,17.62
2022-11-04T14:47:15.133Z,18.21
2022-11-04T14:49:51.072Z,17.48
2022-11-04T14:52:40.530Z,16.68
2022-11-04T14:55:16.127Z,16.04
2022-11-04T14:57:47.338Z,15.61
2022-11-04T15:00:35.861Z,15.30
2022-11-04T15:04:09.324Z,14.98
2022-11-04T15:06:13.594Z,14.66
2022-11-04T15:08:41.294Z,14.45
2022-11-04T15:11:17.155Z,14.25
2022-11-04T15:13:50.747Z,14.04
2022-11-04T15:16:28.217Z,13.88
2022-11-04T15:18:58.765Z,14.15
2022-11-04T15:21:27.495Z,15.49
2022-11-04T15:23:56.269Z,16.39
2022-11-04T15:26:30.098Z,15.95
2022-11-04T15:29:08.750Z,15.28
2022-11-04T15:31:37.929Z,14.77
2022-11-04T15:34:13.289Z,14.42
2022-11-04T15:36:44.201Z,14.16
2022-11-04T15:39:16.845Z,14.22
2022-11-04T15:42:04.223Z,15.54
2022-11-04T15:44:34.906Z,16.99
2022-11-04T15:47:24.804Z,17.54
2022-11-04T15:49:54.266Z,16.78
2022-11-04T15:52:25.436Z,16.04
2022-11-04T15:54:55.215Z,15.49
2022-11-04T15:57:25.833Z,15.09
2022-11-04T16:00:08.765Z,14.76
2022-11-04T16:02:47.036Z,14.46
2022-11-04T16:05:14.724Z,14.20
2022-11-04T16:07:48.176Z,14.00
2022-11-04T16:10:32.924Z,14.19
2022-11-04T16:13:17.099Z,15.69
2022-11-04T16:16:11.166Z,16.74
2022-11-04T16:18:45.396Z,17.15
2022-11-04T16:21:23.757Z,16.44
2022-11-04T16:24:13.547Z,15.72
2022-11-04T16:26:44.737Z,15.18
2022-11-04T16:29:23.344Z,14.83
2022-11-04T16:32:19.186Z,14.55
2022-11-04T16:34:50.629Z,14.27
2022-11-04T16:37:18.435Z,14.07
2022-11-04T16:39:46.406Z,13.89
2022-11-04T16:42:16.017Z,14.10
2022-11-04T16:44:49.732Z,15.92
2022-11-04T16:47:19.239Z,17.68
2022-11-04T16:49:47.584Z,18.42
2022-11-04T16:52:22.949Z,17.67
2022-11-04T16:54:50.775Z,16.68
2022-11-04T16:57:18.534Z,16.00
2022-11-04T16:59:46.373Z,15.48
2022-11-04T17:02:28.705Z,15.07
2022-11-04T17:04:58.466Z,14.70
2022-11-04T17:07:40.574Z,14.40
2022-11-04T17:10:17.090Z,14.80
2022-11-04T17:12:45.432Z,16.60
2022-11-04T17:15:14.867Z,18.15
2022-11-04T17:17:43.272Z,18.72
2022-11-04T17:20:14.041Z,17.74
2022-11-04T17:22:41.909Z,16.63
2022-11-04T17:25:16.474Z,15.87
2022-11-04T17:27:44.646Z,15.31
2022-11-04T17:30:17.057Z,14.89
2022-11-04T17:32:46.415Z,14.52
2022-11-04T17:35:15.892Z,14.67
2022-11-04T17:37:43.930Z,16.40
2022-11-04T17:40:17.666Z,17.80
2022-11-04T17:43:11.263Z,17.90
2022-11-04T17:45:43.526Z,16.70
2022-11-04T17:48:14.302Z,15.87
2022-11-04T17:50:42.807Z,15.28
2022-11-04T17:53:10.828Z,14.84
2022-11-04T17:55:40.556Z,14.92
2022-11-04T17:58:08.675Z,16.39
2022-11-04T18:00:36.523Z,17.64
2022-11-04T18:03:04.327Z,18.07
2022-11-04T18:05:32.066Z,17.23
2022-11-04T18:08:01.752Z,16.23
2022-11-04T18:10:29.592Z,15.69
2022-11-04T18:12:57.817Z,16.66
2022-11-04T18:15:25.548Z,17.84
2022-11-04T18:17:53.322Z,18.27
2022-11-04T18:20:21.182Z,17.40
2022-11-04T18:22:48.967Z,16.37
2022-11-04T18:25:16.843Z,15.63
2022-11-04T18:27:44.887Z,16.13
2022-11-04T18:30:13.129Z,17.32
2022-11-04T18:32:40.916Z,18.00
2022-11-04T18:35:08.672Z,17.92
2022-11-04T18:37:36.461Z,16.71
2022-11-04T18:40:04.843Z,15.80
2022-11-04T18:42:32.996Z,15.14
2022-11-04T18:45:00.728Z,15.06
2022-11-04T18:47:28.592Z,16.54
2022-11-04T18:49:56.391Z,17.82
2022-11-04T18:52:24.116Z,18.25
2022-11-04T18:54:51.899Z,17.37
2022-11-04T18:57:19.622Z,16.32
2022-11-04T18:59:47.798Z,15.58
2022-11-04T19:02:21.645Z,15.36
2022-11-04T19:04:50.964Z,16.74
2022-11-04T19:07:19.573Z,17.97
2022-11-04T19:09:48.055Z,17.80
2022-11-04T19:12:35.653Z,16.63
2022-11-04T19:15:04.650Z,16.08
2022-11-04T19:17:32.404Z,17.05
2022-11-04T19:20:00.246Z,17.77
2022-11-04T19:22:27.958Z,18.06
2022-11-04T19:24:55.707Z,17.15
2022-11-04T19:27:25.088Z,16.15
2022-11-04T19:29:52.953Z,15.35
2022-11-04T19:32:21.450Z,15.47
2022-11-04T19:34:49.778Z,16.47
2022-11-04T19:37:17.535Z,17.11
2022-11-04T19:39:45.280Z,17.12
2022-11-04T19:42:31.659Z,17.12
2022-11-04T19:44:59.450Z,17.17
2022-11-04T19:47:27.258Z,17.20
2022-11-04T19:49:55.806Z,16.64
2022-11-04T19:52:23.573Z,15.76
2022-11-04T19:54:51.375Z,15.50
2022-11-04T19:57:19.174Z,16.42
2022-11-04T19:59:46.929Z,16.86
2022-11-04T20:02:16.382Z,16.98
2022-11-04T20:04:46.228Z,17.52
2022-11-04T20:07:13.955Z,17.50
2022-11-04T20:09:41.803Z,16.62
2022-11-04T20:12:27.935Z,15.81
2022-11-04T20:14:56.867Z,15.66
2022-11-04T20:17:24.675Z,16.81
2022-11-04T20:19:52.464Z,17.70
2022-11-04T20:22:20.233Z,17.72
2022-11-04T20:24:47.996Z,16.68
2022-11-04T20:27:15.857Z,15.79
2022-11-04T20:29:43.733Z,15.37
2022-11-04T20:32:11.651Z,15.94
2022-11-04T20:34:40.100Z,16.59
2022-11-04T20:37:08.026Z,16.85
2022-11-04T20:39:35.802Z,16.97
2022-11-04T20:42:03.791Z,17.26
2022-11-04T20:44:31.734Z,16.77
2022-11-04T20:46:59.755Z,15.89
2022-11-04T20:49:27.432Z,15.56
2022-11-04T20:51:55.941Z,16.44
2022-11-04T20:54:23.691Z,17.16
2022-11-04T20:56:51.630Z,17.83
2022-11-04T20:59:19.391Z,17.60
2022-11-04T21:01:48.957Z,16.64
2022-11-04T21:04:19.597Z,15.72
2022-11-04T21:06:49.465Z,15.42
2022-11-04T21:09:19.733Z,16.47
2022-11-04T21:11:48.739Z,17.22
2022-11-04T21:14:19.512Z,17.55
2022-11-04T21:20:52.455Z,16.20
2022-11-04T21:23:48.256Z,15.40
2022-11-04T21:26:32.111Z,16.40
2022-11-04T21:29:02.557Z,17.21
2022-11-04T21:31:32.870Z,17.68
2022-11-04T21:34:00.801Z,17.23
2022-11-04T21:36:28.542Z,16.22
2022-11-04T21:38:58.167Z,15.46
2022-11-04T21:41:28.870Z,15.08
2022-11-04T21:44:01.555Z,15.57
2022-11-04T21:46:31.936Z,15.85
2022-11-04T21:49:00.950Z,16.37
2022-11-04T21:51:31.429Z,17.15
2022-11-04T21:54:00.181Z,17.64
2022-11-04T21:56:29.857Z,17.25
2022-11-04T21:58:57.756Z,16.26
2022-11-04T22:01:28.794Z,15.44
2022-11-04T22:03:59.596Z,15.23
2022-11-04T22:06:33.511Z,16.25
2022-11-04T22:09:05.428Z,16.86
2022-11-04T22:11:36.748Z,17.37
2022-11-04T22:14:07.464Z,17.44
2022-11-04T22:16:38.547Z,16.46
2022-11-04T22:19:08.650Z,15.53
2022-11-04T22:21:39.792Z,15.16
2022-11-04T22:24:11.149Z,15.96
2022-11-04T22:26:39.782Z,16.52
2022-11-04T22:29:07.964Z,16.60
2022-11-04T22:31:39.273Z,16.60
2022-11-04T22:34:07.363Z,16.70
2022-11-04T22:36:35.472Z,17.01
2022-11-04T22:39:03.557Z,17.39
2022-11-04T22:41:32.499Z,17.45
2022-11-04T22:44:00.241Z,16.64
2022-11-04T22:46:30.692Z,15.76
2022-11-04T22:49:00.165Z,15.60
2022-11-04T22:51:29.213Z,16.77
2022-11-04T22:54:01.577Z,17.41
2022-11-04T22:56:34.391Z,16.78
2022-11-04T22:59:02.136Z,15.76
2022-11-04T23:01:31.807Z,15.35
2022-11-04T23:04:00.173Z,16.49
2022-11-04T23:06:28.013Z,17.67
2022-11-04T23:09:00.051Z,18.12
2022-11-04T23:11:47.915Z,17.06
2022-11-04T23:14:39.380Z,15.83
2022-11-04T23:17:38.136Z,15.51
2022-11-04T23:20:10.084Z,16.92
2022-11-04T23:22:56.641Z,17.66
2022-11-04T23:25:25.354Z,18.25
2022-11-04T23:28:13.840Z,17.40
2022-11-04T23:30:47.258Z,15.93
2022-11-04T23:33:15.565Z,14.97
2022-11-04T23:36:07.867Z,14.52
2022-11-04T23:38:35.776Z,15.59
2022-11-04T23:41:26.012Z,16.27
2022-11-04T23:43:53.736Z,15.17
2022-11-04T23:46:43.382Z,14.00
2022-11-04T23:49:34.502Z,14.22
2022-11-04T23:52:21.077Z,15.15
2022-11-04T23:55:07.557Z,15.27
2022-11-04T23:57:53.823Z,14.06
